sensor_id;sensor_type;location;lat;lon;timestamp;P1;durP1;ratioP1;P2;durP2;ratioP2
14722;SDS011;7452;55.594;12.986;2022-10-26T00:01:09;17.00;;;6.20;;
14722;SDS011;7452;55.594;12.986;2022-10-26T00:03:40;14.90;;;6.63;;
14722;SDS011;7452;55.594;12.986;2022-10-26T00:06:09;18.57;;;6.07;;
14722;SDS011;7452;55.594;12.986;2022-10-26T00:08:39;16.80;;;6.90;;
14722;SDS011;7452;55.594;12.986;2022-10-26T00:11:07;17.23;;;6.40;;
14722;SDS011;7452;55.594;12.986;2022-10-26T00:13:38;16.67;;;7.00;;
14722;SDS011;7452;55.594;12.986;2022-10-26T00:16:07;13.77;;;5.80;;
14722;SDS011;7452;55.594;12.986;2022-10-26T00:18:35;17.40;;;6.40;;
14722;SDS011;7452;55.594;12.986;2022-10-26T00:21:05;16.00;;;6.23;;
14722;SDS011;7452;55.594;12.986;2022-10-26T00:23:33;19.00;;;6.60;;
14722;SDS011;7452;55.594;12.986;2022-10-26T00:26:00;17.07;;;5.60;;
14722;SDS011;7452;55.594;12.986;2022-10-26T00:28:28;18.13;;;6.60;;
14722;SDS011;7452;55.594;12.986;2022-10-26T00:30:58;18.67;;;6.83;;
14722;SDS011;7452;55.594;12.986;2022-10-26T00:33:28;17.57;;;6.43;;
14722;SDS011;7452;55.594;12.986;2022-10-26T00:35:56;14.30;;;5.70;;
14722;SDS011;7452;55.594;12.986;2022-10-26T00:38:25;14.47;;;6.43;;
14722;SDS011;7452;55.594;12.986;2022-10-26T00:40:52;16.97;;;6.63;;
14722;SDS011;7452;55.594;12.986;2022-10-26T00:43:32;12.73;;;6.57;;
14722;SDS011;7452;55.594;12.986;2022-10-26T00:46:05;20.57;;;6.77;;
14722;SDS011;7452;55.594;12.986;2022-10-26T00:48:37;18.20;;;6.30;;
14722;SDS011;7452;55.594;12.986;2022-10-26T00:51:08;15.40;;;6.43;;
14722;SDS011;7452;55.594;12.986;2022-10-26T00:53:40;21.27;;;7.00;;
14722;SDS011;7452;55.594;12.986;2022-10-26T00:56:08;18.37;;;7.00;;
14722;SDS011;7452;55.594;12.986;2022-10-26T00:58:35;20.07;;;7.20;;
14722;SDS011;7452;55.594;12.986;2022-10-26T01:01:04;20.77;;;6.63;;
14722;SDS011;7452;55.594;12.986;2022-10-26T01:03:32;16.97;;;6.23;;
14722;SDS011;7452;55.594;12.986;2022-10-26T01:06:01;19.40;;;7.60;;
14722;SDS011;7452;55.594;12.986;2022-10-26T01:08:30;16.20;;;6.60;;
14722;SDS011;7452;55.594;12.986;2022-10-26T01:11:00;18.07;;;7.23;;
14722;SDS011;7452;55.594;12.986;2022-10-26T01:13:29;18.30;;;7.60;;
14722;SDS011;7452;55.594;12.986;2022-10-26T01:16:01;16.93;;;7.20;;
14722;SDS011;7452;55.594;12.986;2022-10-26T01:18:44;17.80;;;6.50;;
14722;SDS011;7452;55.594;12.986;2022-10-26T01:21:27;17.93;;;7.20;;
14722;SDS011;7452;55.594;12.986;2022-10-26T01:24:17;17.20;;;7.27;;
14722;SDS011;7452;55.594;12.986;2022-10-26T01:26:57;16.63;;;7.30;;
14722;SDS011;7452;55.594;12.986;2022-10-26T01:32:45;18.93;;;6.97;;
14722;SDS011;7452;55.594;12.986;2022-10-26T01:35:20;17.87;;;6.67;;
14722;SDS011;7452;55.594;12.986;2022-10-26T01:37:53;15.10;;;6.50;;
14722;SDS011;7452;55.594;12.986;2022-10-26T01:40:24;12.97;;;6.57;;
14722;SDS011;7452;55.594;12.986;2022-10-26T01:42:58;21.07;;;7.23;;
14722;SDS011;7452;55.594;12.986;2022-10-26T01:45:29;15.37;;;6.70;;
14722;SDS011;7452;55.594;12.986;2022-10-26T01:48:01;13.27;;;6.27;;
14722;SDS011;7452;55.594;12.986;2022-10-26T01:50:29;15.87;;;6.40;;
14722;SDS011;7452;55.594;12.986;2022-10-26T01:52:58;13.47;;;6.57;;
14722;SDS011;7452;55.594;12.986;2022-10-26T01:55:45;18.43;;;7.27;;
14722;SDS011;7452;55.594;12.986;2022-10-26T01:58:22;12.00;;;6.20;;
14722;SDS011;7452;55.594;12.986;2022-10-26T02:01:06;19.00;;;6.47;;
14722;SDS011;7452;55.594;12.986;2022-10-26T02:03:49;12.53;;;6.50;;
14722;SDS011;7452;55.594;12.986;2022-10-26T02:06:27;17.13;;;6.30;;
14722;SDS011;7452;55.594;12.986;2022-10-26T02:09:07;12.33;;;6.10;;
14722;SDS011;7452;55.594;12.986;2022-10-26T02:11:41;12.27;;;5.83;;
14722;SDS011;7452;55.594;12.986;2022-10-26T02:14:12;15.70;;;5.60;;
14722;SDS011;7452;55.594;12.986;2022-10-26T02:16:52;11.80;;;5.30;;
14722;SDS011;7452;55.594;12.986;2022-10-26T02:19:29;19.60;;;5.93;;
14722;SDS011;7452;55.594;12.986;2022-10-26T02:22:01;15.90;;;5.73;;
14722;SDS011;7452;55.594;12.986;2022-10-26T02:24:35;15.43;;;5.97;;
14722;SDS011;7452;55.594;12.986;2022-10-26T02:27:07;18.83;;;6.50;;
14722;SDS011;7452;55.594;12.986;2022-10-26T02:29:42;13.40;;;6.20;;
14722;SDS011;7452;55.594;12.986;2022-10-26T02:32:10;14.10;;;6.13;;
14722;SDS011;7452;55.594;12.986;2022-10-26T02:34:40;13.80;;;6.47;;
14722;SDS011;7452;55.594;12.986;2022-10-26T02:37:18;17.43;;;6.73;;
14722;SDS011;7452;55.594;12.986;2022-10-26T02:39:50;20.03;;;6.97;;
14722;SDS011;7452;55.594;12.986;2022-10-26T02:42:20;17.77;;;6.80;;
14722;SDS011;7452;55.594;12.986;2022-10-26T02:44:52;15.43;;;6.50;;
14722;SDS011;7452;55.594;12.986;2022-10-26T02:47:23;12.73;;;6.43;;
14722;SDS011;7452;55.594;12.986;2022-10-26T02:49:53;21.60;;;6.97;;
14722;SDS011;7452;55.594;12.986;2022-10-26T02:52:21;16.43;;;7.43;;
14722;SDS011;7452;55.594;12.986;2022-10-26T02:54:55;19.10;;;7.13;;
14722;SDS011;7452;55.594;12.986;2022-10-26T02:57:31;17.23;;;6.90;;
14722;SDS011;7452;55.594;12.986;2022-10-26T03:00:04;16.83;;;7.03;;
14722;SDS011;7452;55.594;12.986;2022-10-26T03:02:32;16.20;;;6.60;;
14722;SDS011;7452;55.594;12.986;2022-10-26T03:05:06;20.40;;;6.90;;
14722;SDS011;7452;55.594;12.986;2022-10-26T03:07:38;16.57;;;7.10;;
14722;SDS011;7452;55.594;12.986;2022-10-26T03:10:06;20.90;;;6.57;;
14722;SDS011;7452;55.594;12.986;2022-10-26T03:12:36;17.40;;;7.10;;
14722;SDS011;7452;55.594;12.986;2022-10-26T03:15:04;15.90;;;6.30;;
14722;SDS011;7452;55.594;12.986;2022-10-26T03:17:32;22.27;;;7.10;;
14722;SDS011;7452;55.594;12.986;2022-10-26T03:19:59;16.73;;;6.43;;
14722;SDS011;7452;55.594;12.986;2022-10-26T03:22:31;19.53;;;6.53;;
14722;SDS011;7452;55.594;12.986;2022-10-26T03:24:58;14.87;;;6.23;;
14722;SDS011;7452;55.594;12.986;2022-10-26T03:27:26;17.67;;;6.17;;
14722;SDS011;7452;55.594;12.986;2022-10-26T03:29:54;22.20;;;6.00;;
14722;SDS011;7452;55.594;12.986;2022-10-26T03:32:23;19.87;;;6.90;;
14722;SDS011;7452;55.594;12.986;2022-10-26T03:34:51;13.57;;;5.90;;
14722;SDS011;7452;55.594;12.986;2022-10-26T03:37:22;18.93;;;5.63;;
14722;SDS011;7452;55.594;12.986;2022-10-26T03:39:51;17.73;;;5.50;;
14722;SDS011;7452;55.594;12.986;2022-10-26T03:42:18;18.97;;;5.97;;
14722;SDS011;7452;55.594;12.986;2022-10-26T03:44:47;16.33;;;5.50;;
14722;SDS011;7452;55.594;12.986;2022-10-26T03:47:14;18.87;;;5.83;;
14722;SDS011;7452;55.594;12.986;2022-10-26T03:49:42;13.40;;;4.87;;
14722;SDS011;7452;55.594;12.986;2022-10-26T03:52:10;20.60;;;5.80;;
14722;SDS011;7452;55.594;12.986;2022-10-26T03:54:37;16.87;;;5.13;;
14722;SDS011;7452;55.594;12.986;2022-10-26T03:57:05;15.00;;;5.50;;
14722;SDS011;7452;55.594;12.986;2022-10-26T03:59:33;20.03;;;5.53;;
14722;SDS011;7452;55.594;12.986;2022-10-26T04:02:01;17.00;;;5.73;;
14722;SDS011;7452;55.594;12.986;2022-10-26T04:04:29;14.87;;;5.63;;
14722;SDS011;7452;55.594;12.986;2022-10-26T04:06:56;16.90;;;6.00;;
14722;SDS011;7452;55.594;12.986;2022-10-26T04:09:24;22.00;;;6.50;;
14722;SDS011;7452;55.594;12.986;2022-10-26T04:11:51;23.73;;;6.87;;
14722;SDS011;7452;55.594;12.986;2022-10-26T04:14:19;18.70;;;5.70;;
14722;SDS011;7452;55.594;12.986;2022-10-26T04:16:47;18.80;;;5.83;;
14722;SDS011;7452;55.594;12.986;2022-10-26T04:19:14;19.73;;;6.80;;
14722;SDS011;7452;55.594;12.986;2022-10-26T04:21:42;13.37;;;5.50;;
14722;SDS011;7452;55.594;12.986;2022-10-26T04:24:10;15.60;;;5.63;;
14722;SDS011;7452;55.594;12.986;2022-10-26T04:26:37;19.40;;;5.60;;
14722;SDS011;7452;55.594;12.986;2022-10-26T04:29:04;18.73;;;5.60;;
14722;SDS011;7452;55.594;12.986;2022-10-26T04:31:34;17.03;;;5.50;;
14722;SDS011;7452;55.594;12.986;2022-10-26T04:34:02;11.67;;;5.50;;
14722;SDS011;7452;55.594;12.986;2022-10-26T04:36:30;18.90;;;6.10;;
14722;SDS011;7452;55.594;12.986;2022-10-26T04:38:58;22.67;;;6.17;;
14722;SDS011;7452;55.594;12.986;2022-10-26T04:41:26;18.53;;;5.60;;
14722;SDS011;7452;55.594;12.986;2022-10-26T04:43:53;16.73;;;6.07;;
14722;SDS011;7452;55.594;12.986;2022-10-26T04:46:23;25.27;;;6.20;;
14722;SDS011;7452;55.594;12.986;2022-10-26T04:48:52;15.27;;;6.17;;
14722;SDS011;7452;55.594;12.986;2022-10-26T04:51:20;22.50;;;6.47;;
14722;SDS011;7452;55.594;12.986;2022-10-26T04:53:47;19.80;;;6.60;;
14722;SDS011;7452;55.594;12.986;2022-10-26T04:56:15;20.27;;;6.60;;
14722;SDS011;7452;55.594;12.986;2022-10-26T04:58:43;17.63;;;5.70;;
14722;SDS011;7452;55.594;12.986;2022-10-26T05:01:11;20.13;;;6.10;;
14722;SDS011;7452;55.594;12.986;2022-10-26T05:03:40;15.73;;;6.07;;
14722;SDS011;7452;55.594;12.986;2022-10-26T05:06:09;16.37;;;6.37;;
14722;SDS011;7452;55.594;12.986;2022-10-26T05:08:36;14.70;;;6.80;;
14722;SDS011;7452;55.594;12.986;2022-10-26T05:11:05;19.97;;;7.17;;
14722;SDS011;7452;55.594;12.986;2022-10-26T05:13:35;17.33;;;6.70;;
14722;SDS011;7452;55.594;12.986;2022-10-26T05:16:03;19.13;;;6.10;;
14722;SDS011;7452;55.594;12.986;2022-10-26T05:18:31;17.73;;;6.43;;
14722;SDS011;7452;55.594;12.986;2022-10-26T05:21:00;20.93;;;7.00;;
14722;SDS011;7452;55.594;12.986;2022-10-26T05:23:38;17.93;;;6.87;;
14722;SDS011;7452;55.594;12.986;2022-10-26T05:26:07;16.97;;;7.03;;
14722;SDS011;7452;55.594;12.986;2022-10-26T05:28:35;18.63;;;7.17;;
14722;SDS011;7452;55.594;12.986;2022-10-26T05:31:02;14.63;;;6.73;;
14722;SDS011;7452;55.594;12.986;2022-10-26T05:33:30;16.60;;;6.37;;
14722;SDS011;7452;55.594;12.986;2022-10-26T05:35:58;17.07;;;5.93;;
14722;SDS011;7452;55.594;12.986;2022-10-26T05:38:28;13.40;;;5.70;;
14722;SDS011;7452;55.594;12.986;2022-10-26T05:40:57;11.53;;;5.97;;
14722;SDS011;7452;55.594;12.986;2022-10-26T05:43:25;16.53;;;6.13;;
14722;SDS011;7452;55.594;12.986;2022-10-26T05:45:53;16.33;;;6.13;;
14722;SDS011;7452;55.594;12.986;2022-10-26T05:48:21;15.90;;;5.93;;
14722;SDS011;7452;55.594;12.986;2022-10-26T05:50:49;22.03;;;7.23;;
14722;SDS011;7452;55.594;12.986;2022-10-26T05:53:17;14.77;;;6.53;;
14722;SDS011;7452;55.594;12.986;2022-10-26T05:55:47;15.97;;;6.37;;
14722;SDS011;7452;55.594;12.986;2022-10-26T05:58:14;16.10;;;7.27;;
14722;SDS011;7452;55.594;12.986;2022-10-26T06:00:49;17.63;;;7.07;;
14722;SDS011;7452;55.594;12.986;2022-10-26T06:03:30;14.40;;;6.40;;
14722;SDS011;7452;55.594;12.986;2022-10-26T06:06:05;18.50;;;7.47;;
14722;SDS011;7452;55.594;12.986;2022-10-26T06:08:35;15.50;;;7.20;;
14722;SDS011;7452;55.594;12.986;2022-10-26T06:11:06;16.27;;;7.13;;
14722;SDS011;7452;55.594;12.986;2022-10-26T06:13:41;18.97;;;7.67;;
14722;SDS011;7452;55.594;12.986;2022-10-26T06:16:13;17.17;;;7.20;;
14722;SDS011;7452;55.594;12.986;2022-10-26T06:18:57;18.53;;;6.60;;
14722;SDS011;7452;55.594;12.986;2022-10-26T06:21:36;15.10;;;6.97;;
14722;SDS011;7452;55.594;12.986;2022-10-26T06:24:16;17.93;;;7.20;;
14722;SDS011;7452;55.594;12.986;2022-10-26T06:26:52;18.53;;;8.00;;
14722;SDS011;7452;55.594;12.986;2022-10-26T06:29:34;17.00;;;7.33;;
14722;SDS011;7452;55.594;12.986;2022-10-26T06:32:23;15.73;;;7.40;;
14722;SDS011;7452;55.594;12.986;2022-10-26T06:34:51;19.17;;;8.17;;
14722;SDS011;7452;55.594;12.986;2022-10-26T06:37:26;19.63;;;9.43;;
14722;SDS011;7452;55.594;12.986;2022-10-26T06:39:55;24.37;;;8.70;;
14722;SDS011;7452;55.594;12.986;2022-10-26T06:42:26;21.47;;;9.33;;
14722;SDS011;7452;55.594;12.986;2022-10-26T06:44:54;23.87;;;10.10;;
14722;SDS011;7452;55.594;12.986;2022-10-26T06:47:21;23.37;;;10.23;;
14722;SDS011;7452;55.594;12.986;2022-10-26T06:49:57;24.07;;;9.47;;
14722;SDS011;7452;55.594;12.986;2022-10-26T06:52:32;21.03;;;8.53;;
14722;SDS011;7452;55.594;12.986;2022-10-26T06:55:06;17.47;;;9.83;;
14722;SDS011;7452;55.594;12.986;2022-10-26T06:57:44;19.93;;;10.67;;
14722;SDS011;7452;55.594;12.986;2022-10-26T07:00:15;20.53;;;10.43;;
14722;SDS011;7452;55.594;12.986;2022-10-26T07:02:45;22.37;;;10.73;;
14722;SDS011;7452;55.594;12.986;2022-10-26T07:05:12;24.00;;;11.97;;
14722;SDS011;7452;55.594;12.986;2022-10-26T07:07:42;22.93;;;12.27;;
14722;SDS011;7452;55.594;12.986;2022-10-26T07:10:13;22.03;;;12.07;;
14722;SDS011;7452;55.594;12.986;2022-10-26T07:12:42;21.50;;;11.60;;
14722;SDS011;7452;55.594;12.986;2022-10-26T07:15:14;26.87;;;11.07;;
14722;SDS011;7452;55.594;12.986;2022-10-26T07:17:42;22.20;;;11.10;;
14722;SDS011;7452;55.594;12.986;2022-10-26T07:20:10;16.30;;;9.27;;
14722;SDS011;7452;55.594;12.986;2022-10-26T07:22:38;16.63;;;8.87;;
14722;SDS011;7452;55.594;12.986;2022-10-26T07:25:07;19.40;;;8.87;;
14722;SDS011;7452;55.594;12.986;2022-10-26T07:27:36;16.00;;;7.13;;
14722;SDS011;7452;55.594;12.986;2022-10-26T07:30:06;15.60;;;6.40;;
14722;SDS011;7452;55.594;12.986;2022-10-26T07:32:34;19.33;;;6.37;;
14722;SDS011;7452;55.594;12.986;2022-10-26T07:35:01;21.20;;;6.33;;
14722;SDS011;7452;55.594;12.986;2022-10-26T07:37:29;17.63;;;6.57;;
14722;SDS011;7452;55.594;12.986;2022-10-26T07:39:56;15.43;;;5.53;;
14722;SDS011;7452;55.594;12.986;2022-10-26T07:42:23;19.63;;;5.97;;
14722;SDS011;7452;55.594;12.986;2022-10-26T07:44:50;15.23;;;5.53;;
14722;SDS011;7452;55.594;12.986;2022-10-26T07:47:19;21.77;;;5.73;;
14722;SDS011;7452;55.594;12.986;2022-10-26T07:49:46;12.03;;;5.90;;
14722;SDS011;7452;55.594;12.986;2022-10-26T07:52:13;16.20;;;5.83;;
14722;SDS011;7452;55.594;12.986;2022-10-26T07:54:41;15.90;;;5.20;;
14722;SDS011;7452;55.594;12.986;2022-10-26T07:57:09;12.20;;;4.87;;
14722;SDS011;7452;55.594;12.986;2022-10-26T07:59:37;17.67;;;5.40;;
14722;SDS011;7452;55.594;12.986;2022-10-26T08:02:04;14.47;;;4.80;;
14722;SDS011;7452;55.594;12.986;2022-10-26T08:04:33;12.83;;;4.90;;
14722;SDS011;7452;55.594;12.986;2022-10-26T08:07:01;14.23;;;4.80;;
14722;SDS011;7452;55.594;12.986;2022-10-26T08:09:29;11.73;;;4.93;;
14722;SDS011;7452;55.594;12.986;2022-10-26T08:11:56;11.23;;;4.30;;
14722;SDS011;7452;55.594;12.986;2022-10-26T08:14:24;10.40;;;3.67;;
14722;SDS011;7452;55.594;12.986;2022-10-26T08:16:51;16.27;;;4.57;;
14722;SDS011;7452;55.594;12.986;2022-10-26T08:19:18;16.33;;;4.33;;
14722;SDS011;7452;55.594;12.986;2022-10-26T08:21:47;12.80;;;4.47;;
14722;SDS011;7452;55.594;12.986;2022-10-26T08:24:18;11.60;;;4.20;;
14722;SDS011;7452;55.594;12.986;2022-10-26T08:26:47;16.90;;;4.23;;
14722;SDS011;7452;55.594;12.986;2022-10-26T08:29:15;10.70;;;3.60;;
14722;SDS011;7452;55.594;12.986;2022-10-26T08:31:42;13.80;;;5.13;;
14722;SDS011;7452;55.594;12.986;2022-10-26T08:34:09;13.60;;;4.77;;
14722;SDS011;7452;55.594;12.986;2022-10-26T08:36:37;11.30;;;4.40;;
14722;SDS011;7452;55.594;12.986;2022-10-26T08:39:05;16.13;;;4.77;;
14722;SDS011;7452;55.594;12.986;2022-10-26T08:41:34;9.60;;;4.70;;
14722;SDS011;7452;55.594;12.986;2022-10-26T08:44:07;11.90;;;5.13;;
14722;SDS011;7452;55.594;12.986;2022-10-26T08:46:45;12.23;;;5.17;;
14722;SDS011;7452;55.594;12.986;2022-10-26T08:49:19;8.43;;;5.33;;
14722;SDS011;7452;55.594;12.986;2022-10-26T08:51:49;12.33;;;5.67;;
14722;SDS011;7452;55.594;12.986;2022-10-26T08:54:26;16.33;;;6.70;;
14722;SDS011;7452;55.594;12.986;2022-10-26T08:57:01;11.57;;;5.77;;
14722;SDS011;7452;55.594;12.986;2022-10-26T08:59:37;9.47;;;5.93;;
14722;SDS011;7452;55.594;12.986;2022-10-26T09:02:10;12.97;;;6.77;;
14722;SDS011;7452;55.594;12.986;2022-10-26T09:04:38;13.30;;;7.40;;
14722;SDS011;7452;55.594;12.986;2022-10-26T09:07:08;18.23;;;7.97;;
14722;SDS011;7452;55.594;12.986;2022-10-26T09:09:47;12.20;;;7.13;;
14722;SDS011;7452;55.594;12.986;2022-10-26T09:12:35;15.93;;;7.53;;
14722;SDS011;7452;55.594;12.986;2022-10-26T09:15:13;16.03;;;6.87;;
14722;SDS011;7452;55.594;12.986;2022-10-26T09:17:46;13.00;;;7.03;;
14722;SDS011;7452;55.594;12.986;2022-10-26T09:20:29;16.77;;;6.60;;
14722;SDS011;7452;55.594;12.986;2022-10-26T09:23:20;13.00;;;7.17;;
14722;SDS011;7452;55.594;12.986;2022-10-26T09:25:58;12.13;;;6.70;;
14722;SDS011;7452;55.594;12.986;2022-10-26T09:28:27;13.07;;;6.30;;
14722;SDS011;7452;55.594;12.986;2022-10-26T09:31:00;12.50;;;6.37;;
14722;SDS011;7452;55.594;12.986;2022-10-26T09:33:30;9.63;;;5.87;;
14722;SDS011;7452;55.594;12.986;2022-10-26T09:36:02;15.20;;;6.73;;
14722;SDS011;7452;55.594;12.986;2022-10-26T09:38:33;13.33;;;7.00;;
14722;SDS011;7452;55.594;12.986;2022-10-26T09:41:09;15.67;;;7.27;;
14722;SDS011;7452;55.594;12.986;2022-10-26T09:43:42;11.47;;;6.73;;
14722;SDS011;7452;55.594;12.986;2022-10-26T09:46:14;14.23;;;6.50;;
14722;SDS011;7452;55.594;12.986;2022-10-26T09:48:47;13.80;;;6.73;;
14722;SDS011;7452;55.594;12.986;2022-10-26T09:51:18;13.77;;;6.53;;
14722;SDS011;7452;55.594;12.986;2022-10-26T09:53:47;12.73;;;6.90;;
14722;SDS011;7452;55.594;12.986;2022-10-26T09:56:17;8.77;;;5.80;;
14722;SDS011;7452;55.594;12.986;2022-10-26T09:58:49;12.83;;;5.90;;
14722;SDS011;7452;55.594;12.986;2022-10-26T10:01:27;13.17;;;6.13;;
14722;SDS011;7452;55.594;12.986;2022-10-26T10:04:09;15.93;;;7.00;;
14722;SDS011;7452;55.594;12.986;2022-10-26T10:06:47;12.80;;;6.80;;
14722;SDS011;7452;55.594;12.986;2022-10-26T10:09:16;14.87;;;6.67;;
14722;SDS011;7452;55.594;12.986;2022-10-26T10:11:48;13.50;;;6.47;;
14722;SDS011;7452;55.594;12.986;2022-10-26T10:14:23;16.57;;;6.73;;
14722;SDS011;7452;55.594;12.986;2022-10-26T10:16:52;12.37;;;7.17;;
14722;SDS011;7452;55.594;12.986;2022-10-26T10:19:22;19.40;;;8.30;;
14722;SDS011;7452;55.594;12.986;2022-10-26T10:21:51;14.87;;;8.53;;
14722;SDS011;7452;55.594;12.986;2022-10-26T10:24:21;20.00;;;8.83;;
14722;SDS011;7452;55.594;12.986;2022-10-26T10:26:56;16.77;;;7.50;;
14722;SDS011;7452;55.594;12.986;2022-10-26T10:29:26;12.57;;;8.13;;
14722;SDS011;7452;55.594;12.986;2022-10-26T10:31:55;17.60;;;8.30;;
14722;SDS011;7452;55.594;12.986;2022-10-26T10:34:23;16.60;;;8.30;;
14722;SDS011;7452;55.594;12.986;2022-10-26T10:36:52;15.73;;;8.27;;
14722;SDS011;7452;55.594;12.986;2022-10-26T10:39:27;23.10;;;9.73;;
14722;SDS011;7452;55.594;12.986;2022-10-26T10:42:03;18.77;;;10.03;;
14722;SDS011;7452;55.594;12.986;2022-10-26T10:44:37;19.27;;;10.80;;
14722;SDS011;7452;55.594;12.986;2022-10-26T10:47:13;18.70;;;11.03;;
14722;SDS011;7452;55.594;12.986;2022-10-26T10:49:49;21.53;;;12.10;;
14722;SDS011;7452;55.594;12.986;2022-10-26T10:52:22;20.30;;;10.73;;
14722;SDS011;7452;55.594;12.986;2022-10-26T10:54:54;15.47;;;10.90;;
14722;SDS011;7452;55.594;12.986;2022-10-26T10:57:50;19.83;;;12.30;;
14722;SDS011;7452;55.594;12.986;2022-10-26T11:00:26;24.27;;;12.73;;
14722;SDS011;7452;55.594;12.986;2022-10-26T11:06:14;23.57;;;12.40;;
14722;SDS011;7452;55.594;12.986;2022-10-26T11:08:45;24.40;;;13.60;;
14722;SDS011;7452;55.594;12.986;2022-10-26T11:11:17;23.03;;;13.80;;
14722;SDS011;7452;55.594;12.986;2022-10-26T11:13:51;21.33;;;13.57;;
14722;SDS011;7452;55.594;12.986;2022-10-26T11:16:22;24.73;;;13.50;;
14722;SDS011;7452;55.594;12.986;2022-10-26T11:18:57;27.03;;;13.93;;
14722;SDS011;7452;55.594;12.986;2022-10-26T11:21:29;25.80;;;13.93;;
14722;SDS011;7452;55.594;12.986;2022-10-26T11:24:03;27.30;;;15.03;;
14722;SDS011;7452;55.594;12.986;2022-10-26T11:26:43;26.27;;;14.67;;
14722;SDS011;7452;55.594;12.986;2022-10-26T11:29:27;25.50;;;14.43;;
14722;SDS011;7452;55.594;12.986;2022-10-26T11:32:01;21.70;;;14.47;;
14722;SDS011;7452;55.594;12.986;2022-10-26T11:34:36;24.33;;;14.80;;
14722;SDS011;7452;55.594;12.986;2022-10-26T11:37:10;27.00;;;17.10;;
14722;SDS011;7452;55.594;12.986;2022-10-26T11:39:44;35.63;;;18.80;;
14722;SDS011;7452;55.594;12.986;2022-10-26T11:42:19;27.83;;;19.17;;
14722;SDS011;7452;55.594;12.986;2022-10-26T11:44:52;35.13;;;19.33;;
14722;SDS011;7452;55.594;12.986;2022-10-26T11:47:29;32.40;;;19.13;;
14722;SDS011;7452;55.594;12.986;2022-10-26T11:50:05;33.00;;;18.63;;
14722;SDS011;7452;55.594;12.986;2022-10-26T11:52:42;35.77;;;19.80;;
14722;SDS011;7452;55.594;12.986;2022-10-26T11:55:11;34.30;;;20.03;;
14722;SDS011;7452;55.594;12.986;2022-10-26T11:57:44;31.43;;;19.00;;
14722;SDS011;7452;55.594;12.986;2022-10-26T12:00:26;29.70;;;18.83;;
14722;SDS011;7452;55.594;12.986;2022-10-26T12:02:55;31.30;;;17.93;;
14722;SDS011;7452;55.594;12.986;2022-10-26T12:05:32;28.63;;;18.07;;
14722;SDS011;7452;55.594;12.986;2022-10-26T12:08:02;32.50;;;18.87;;
14722;SDS011;7452;55.594;12.986;2022-10-26T12:10:37;26.53;;;18.50;;
14722;SDS011;7452;55.594;12.986;2022-10-26T12:13:12;27.30;;;17.47;;
14722;SDS011;7452;55.594;12.986;2022-10-26T12:15:47;26.67;;;16.60;;
14722;SDS011;7452;55.594;12.986;2022-10-26T12:18:19;28.37;;;18.37;;
14722;SDS011;7452;55.594;12.986;2022-10-26T12:20:58;29.23;;;18.43;;
14722;SDS011;7452;55.594;12.986;2022-10-26T12:23:32;30.50;;;18.30;;
14722;SDS011;7452;55.594;12.986;2022-10-26T12:35:30;18.90;;;13.30;;
14722;SDS011;7452;55.594;12.986;2022-10-26T12:41:17;22.03;;;13.20;;
14722;SDS011;7452;55.594;12.986;2022-10-26T12:43:46;18.70;;;13.47;;
14722;SDS011;7452;55.594;12.986;2022-10-26T12:52:31;21.63;;;12.70;;
14722;SDS011;7452;55.594;12.986;2022-10-26T13:01:15;17.90;;;11.63;;
14722;SDS011;7452;55.594;12.986;2022-10-26T13:03:57;18.83;;;12.90;;
14722;SDS011;7452;55.594;12.986;2022-10-26T13:06:40;18.20;;;12.70;;
14722;SDS011;7452;55.594;12.986;2022-10-26T13:09:28;17.67;;;11.80;;
14722;SDS011;7452;55.594;12.986;2022-10-26T13:12:00;17.17;;;11.30;;
14722;SDS011;7452;55.594;12.986;2022-10-26T13:14:30;13.13;;;10.37;;
14722;SDS011;7452;55.594;12.986;2022-10-26T13:17:01;11.90;;;9.37;;
14722;SDS011;7452;55.594;12.986;2022-10-26T13:19:38;15.43;;;9.50;;
14722;SDS011;7452;55.594;12.986;2022-10-26T13:22:11;13.53;;;9.10;;
14722;SDS011;7452;55.594;12.986;2022-10-26T13:24:45;12.27;;;9.27;;
14722;SDS011;7452;55.594;12.986;2022-10-26T13:27:38;11.40;;;8.47;;
14722;SDS011;7452;55.594;12.986;2022-10-26T13:33:10;11.10;;;8.67;;
14722;SDS011;7452;55.594;12.986;2022-10-26T13:35:52;14.70;;;9.37;;
14722;SDS011;7452;55.594;12.986;2022-10-26T13:38:26;14.30;;;8.53;;
14722;SDS011;7452;55.594;12.986;2022-10-26T13:41:18;14.40;;;9.13;;
14722;SDS011;7452;55.594;12.986;2022-10-26T13:43:52;13.80;;;9.43;;
14722;SDS011;7452;55.594;12.986;2022-10-26T13:46:24;15.37;;;9.43;;
14722;SDS011;7452;55.594;12.986;2022-10-26T13:48:53;14.83;;;9.43;;
14722;SDS011;7452;55.594;12.986;2022-10-26T13:51:29;16.07;;;9.50;;
14722;SDS011;7452;55.594;12.986;2022-10-26T13:54:06;16.20;;;9.90;;
14722;SDS011;7452;55.594;12.986;2022-10-26T13:56:52;14.83;;;10.23;;
14722;SDS011;7452;55.594;12.986;2022-10-26T13:59:31;15.00;;;10.27;;
14722;SDS011;7452;55.594;12.986;2022-10-26T14:02:05;20.07;;;10.83;;
14722;SDS011;7452;55.594;12.986;2022-10-26T14:04:33;19.13;;;11.20;;
14722;SDS011;7452;55.594;12.986;2022-10-26T14:07:00;16.13;;;10.87;;
14722;SDS011;7452;55.594;12.986;2022-10-26T14:09:28;15.83;;;10.87;;
14722;SDS011;7452;55.594;12.986;2022-10-26T14:11:59;20.33;;;11.77;;
14722;SDS011;7452;55.594;12.986;2022-10-26T14:14:28;15.37;;;11.27;;
14722;SDS011;7452;55.594;12.986;2022-10-26T14:16:57;16.77;;;11.10;;
14722;SDS011;7452;55.594;12.986;2022-10-26T14:19:26;21.03;;;12.27;;
14722;SDS011;7452;55.594;12.986;2022-10-26T14:21:55;18.50;;;12.30;;
14722;SDS011;7452;55.594;12.986;2022-10-26T14:24:23;20.33;;;12.40;;
14722;SDS011;7452;55.594;12.986;2022-10-26T14:26:54;17.80;;;12.03;;
14722;SDS011;7452;55.594;12.986;2022-10-26T14:29:23;23.87;;;13.03;;
14722;SDS011;7452;55.594;12.986;2022-10-26T14:31:51;18.97;;;12.40;;
14722;SDS011;7452;55.594;12.986;2022-10-26T14:34:19;17.03;;;12.83;;
14722;SDS011;7452;55.594;12.986;2022-10-26T14:36:50;23.20;;;13.87;;
14722;SDS011;7452;55.594;12.986;2022-10-26T14:39:22;25.27;;;19.17;;
14722;SDS011;7452;55.594;12.986;2022-10-26T14:41:56;25.87;;;12.93;;
14722;SDS011;7452;55.594;12.986;2022-10-26T14:44:26;20.53;;;13.70;;
14722;SDS011;7452;55.594;12.986;2022-10-26T14:46:55;21.40;;;13.23;;
14722;SDS011;7452;55.594;12.986;2022-10-26T14:49:23;22.40;;;14.07;;
14722;SDS011;7452;55.594;12.986;2022-10-26T14:51:55;21.60;;;14.20;;
14722;SDS011;7452;55.594;12.986;2022-10-26T14:54:24;21.03;;;14.43;;
14722;SDS011;7452;55.594;12.986;2022-10-26T14:56:53;24.33;;;13.93;;
14722;SDS011;7452;55.594;12.986;2022-10-26T14:59:23;21.73;;;14.43;;
14722;SDS011;7452;55.594;12.986;2022-10-26T15:01:57;24.37;;;15.47;;
14722;SDS011;7452;55.594;12.986;2022-10-26T15:04:31;22.53;;;15.13;;
14722;SDS011;7452;55.594;12.986;2022-10-26T15:07:05;25.90;;;15.63;;
14722;SDS011;7452;55.594;12.986;2022-10-26T15:09:38;21.93;;;16.07;;
14722;SDS011;7452;55.594;12.986;2022-10-26T15:12:17;23.20;;;16.30;;
14722;SDS011;7452;55.594;12.986;2022-10-26T15:15:21;29.47;;;16.97;;
14722;SDS011;7452;55.594;12.986;2022-10-26T15:17:50;24.10;;;16.90;;
14722;SDS011;7452;55.594;12.986;2022-10-26T15:20:19;28.33;;;16.73;;
14722;SDS011;7452;55.594;12.986;2022-10-26T15:22:48;29.97;;;17.87;;
14722;SDS011;7452;55.594;12.986;2022-10-26T15:25:17;26.83;;;17.27;;
14722;SDS011;7452;55.594;12.986;2022-10-26T15:27:47;30.47;;;18.40;;
14722;SDS011;7452;55.594;12.986;2022-10-26T15:30:20;24.83;;;17.23;;
14722;SDS011;7452;55.594;12.986;2022-10-26T15:32:49;23.30;;;16.73;;